Eureka, Nevada
Current Conditions -  °F | °C
As of 8:53 PM on Sunday 19 Oct 2014 (Local Time) from KELY Reporting Station
Clear Clear  
Wind Chill: 45°   Ceiling: Unl
Heat Index: 49°   Visibility: 10mi
Dew Point: 31°   Wind: 10mph
Humidity: 50%   Direction: 180°S
Pressure: 30.11"   Gusts: NA
Location:  39.51°N, 115.96°W
Report Text: KELY 200353Z AUTO 18009KT 10SM CLR 09/M01 A3011 RMK AO2 SLP145 T00941006
Loading
Personal Weather Stations






























Interactive Weather Map
Tropical Storm Tracking
New forecast layout! Learn more

10-Day Weather Forecast

Advertisements
Track Severe Weather on mobile